Time;durP1;ratioP1;P1;durP2;ratioP2;P2;SDS_P1;SDS_P2;PMS_P1;PMS_P2;Temp;Humidity;BMP_temperature;BMP_pressure;BME280_temperature;BME280_humidity;BME280_pressure;Samples;Min_cycle;Max_cycle;Signal;HPM_P1;HPM_P2
2022/12/08 00:01:12;;;;;;;26.77;18.48;;;19.80;42.70;;;;;;5029511;28;20053;-63
2022/12/08 00:03:40;;;;;;;30.00;20.20;;;19.80;42.70;;;;;;5028974;28;20053;-63
2022/12/08 00:09:31;;;;;;;28.05;19.02;;;19.80;42.70;;;;;;5029164;28;20136;-63
2022/12/08 00:12:08;;;;;;;27.48;18.55;;;19.80;42.70;;;;;;5028631;28;20242;-63
2022/12/08 00:14:41;;;;;;;27.33;20.00;;;19.80;42.70;;;;;;5027536;28;20267;-63
2022/12/08 00:17:11;;;;;;;26.77;18.90;;;19.80;42.70;;;;;;5029018;28;20055;-63
2022/12/08 00:19:39;;;;;;;26.60;18.35;;;19.80;42.70;;;;;;5028715;28;20053;-63
2022/12/08 00:22:08;;;;;;;28.17;19.00;;;19.80;42.70;;;;;;5029480;28;20056;-63
2022/12/08 00:24:38;;;;;;;23.50;17.45;;;19.80;42.70;;;;;;5025056;28;20058;-64
2022/12/08 00:27:07;;;;;;;26.50;18.27;;;19.80;42.70;;;;;;5028970;28;20482;-63
2022/12/08 00:29:34;;;;;;;25.42;18.40;;;19.80;42.60;;;;;;5028867;28;20056;-63
2022/12/08 00:32:01;;;;;;;23.75;18.38;;;19.80;42.60;;;;;;5028678;28;20049;-63
2022/12/08 00:34:30;;;;;;;25.77;18.75;;;19.80;42.50;;;;;;5029306;28;20049;-63
2022/12/08 00:36:57;;;;;;;25.55;18.50;;;19.80;42.40;;;;;;5029410;28;20565;-63
2022/12/08 00:39:24;;;;;;;26.60;19.85;;;19.80;42.40;;;;;;5029055;28;20049;-63
2022/12/08 00:44:43;;;;;;;25.35;18.52;;;19.80;42.30;;;;;;5028089;28;20049;-65
2022/12/08 00:47:12;;;;;;;27.20;19.17;;;19.80;42.30;;;;;;5027471;28;20053;-63
2022/12/08 00:49:39;;;;;;;24.52;17.88;;;19.80;42.30;;;;;;5027398;28;20061;-64
2022/12/08 00:52:06;;;;;;;26.10;18.55;;;19.80;42.30;;;;;;5028345;28;20056;-63
2022/12/08 00:54:34;;;;;;;23.77;17.38;;;19.90;42.30;;;;;;5029059;28;20287;-63
2022/12/08 00:57:01;;;;;;;26.83;18.67;;;19.80;42.30;;;;;;5028060;28;20057;-63
2022/12/08 00:59:28;;;;;;;24.90;18.20;;;19.90;42.30;;;;;;5024629;28;20042;-63
2022/12/08 01:01:55;;;;;;;25.13;18.00;;;19.80;42.20;;;;;;5028601;28;20060;-63
2022/12/08 01:04:22;;;;;;;23.90;16.92;;;19.80;42.20;;;;;;5029155;28;20268;-63
2022/12/08 01:06:49;;;;;;;24.63;17.80;;;19.80;42.20;;;;;;5027352;28;20386;-63
2022/12/08 01:09:17;;;;;;;24.60;17.90;;;19.80;42.20;;;;;;5028582;28;20440;-63
2022/12/08 01:11:45;;;;;;;25.05;17.35;;;19.80;42.20;;;;;;5028733;28;20045;-63
2022/12/08 01:14:12;;;;;;;21.15;16.92;;;19.80;42.20;;;;;;5028201;28;20061;-63
2022/12/08 01:16:40;;;;;;;22.77;16.60;;;19.80;42.20;;;;;;5027116;28;20050;-63
2022/12/08 01:19:10;;;;;;;24.55;17.77;;;19.80;42.20;;;;;;5028285;28;20272;-63
2022/12/08 01:21:37;;;;;;;23.30;17.17;;;19.80;42.20;;;;;;5028209;28;20056;-63
2022/12/08 01:24:04;;;;;;;24.08;17.75;;;19.80;42.20;;;;;;5028603;28;20052;-63
2022/12/08 01:26:31;;;;;;;20.95;16.00;;;19.80;42.20;;;;;;5027898;28;20056;-63
2022/12/08 01:28:59;;;;;;;23.25;17.25;;;19.80;42.10;;;;;;5028297;28;20054;-63
2022/12/08 01:31:26;;;;;;;23.05;16.73;;;19.80;42.10;;;;;;5026580;28;20513;-63
2022/12/08 01:33:53;;;;;;;26.48;17.30;;;19.80;42.10;;;;;;5025466;28;20045;-63
2022/12/08 01:36:29;;;;;;;23.83;16.83;;;19.80;42.10;;;;;;5028426;28;20060;-63
2022/12/08 01:39:01;;;;;;;21.08;15.35;;;19.80;42.10;;;;;;5027684;28;20298;-63
2022/12/08 01:41:30;;;;;;;21.00;16.33;;;19.80;42.10;;;;;;5028623;28;20132;-63
2022/12/08 01:44:03;;;;;;;22.15;16.33;;;19.80;42.10;;;;;;5027840;28;20052;-63
2022/12/08 01:46:32;;;;;;;23.17;16.73;;;19.80;42.10;;;;;;5028159;28;20462;-63
2022/12/08 01:49:20;;;;;;;24.05;16.70;;;19.80;42.10;;;;;;5028202;28;20045;-63
2022/12/08 01:52:08;;;;;;;20.30;14.45;;;19.80;42.60;;;;;;5027656;28;20402;-63
2022/12/08 01:54:43;;;;;;;26.63;17.50;;;19.80;42.10;;;;;;5028104;28;20052;-63
2022/12/08 01:57:15;;;;;;;21.73;15.60;;;19.80;42.10;;;;;;5027872;28;20053;-63
2022/12/08 01:59:48;;;;;;;22.02;15.45;;;19.80;42.10;;;;;;5028100;28;20342;-63
2022/12/08 02:02:15;;;;;;;22.75;15.60;;;19.80;42.10;;;;;;5027605;28;20214;-63
2022/12/08 02:04:42;;;;;;;22.10;15.95;;;19.80;42.10;;;;;;5027825;28;20060;-63
2022/12/08 02:07:12;;;;;;;22.85;15.25;;;19.80;42.10;;;;;;5027864;28;20157;-63
2022/12/08 02:09:40;;;;;;;21.25;16.13;;;19.80;42.10;;;;;;5027070;28;20081;-63
2022/12/08 02:12:08;;;;;;;20.58;15.10;;;19.80;42.00;;;;;;5023310;28;20050;-63
2022/12/08 02:14:35;;;;;;;19.15;13.90;;;19.80;42.10;;;;;;5026456;28;20049;-63
2022/12/08 02:17:25;;;;;;;20.52;14.65;;;19.80;42.00;;;;;;5028128;28;20413;-63
2022/12/08 02:20:19;;;;;;;19.58;14.27;;;19.80;42.00;;;;;;5027731;28;20060;-63
2022/12/08 02:23:24;;;;;;;19.70;14.60;;;19.80;42.00;;;;;;5026833;28;20068;-63
2022/12/08 02:26:19;;;;;;;18.05;13.77;;;19.80;42.00;;;;;;5027306;28;20063;-63
2022/12/08 02:29:25;;;;;;;18.10;14.38;;;19.70;41.90;;;;;;5030051;28;20433;-63
2022/12/08 02:32:17;;;;;;;20.45;14.07;;;19.80;42.00;;;;;;5031248;28;20045;-63
2022/12/08 02:35:04;;;;;;;18.23;12.82;;;19.70;42.00;;;;;;5030960;28;20045;-63
2022/12/08 02:37:46;;;;;;;17.67;13.85;;;19.70;42.00;;;;;;5030142;28;20046;-63
2022/12/08 02:40:27;;;;;;;24.13;13.98;;;19.70;42.00;;;;;;5031576;28;20042;-63
2022/12/08 02:43:00;;;;;;;16.02;12.05;;;19.70;42.00;;;;;;5030925;28;20401;-63
2022/12/08 02:45:35;;;;;;;18.92;13.15;;;19.70;42.00;;;;;;5030303;28;20413;-63
2022/12/08 02:48:02;;;;;;;14.73;11.60;;;19.70;42.00;;;;;;5031333;28;20051;-63
2022/12/08 02:50:29;;;;;;;14.95;12.65;;;19.70;42.00;;;;;;5030798;28;20136;-63
2022/12/08 02:52:56;;;;;;;17.17;12.52;;;19.70;41.90;;;;;;5026496;28;20053;-63
2022/12/08 02:55:46;;;;;;;18.88;13.57;;;19.80;41.80;;;;;;5030711;28;20049;-63
2022/12/08 02:58:34;;;;;;;18.02;12.95;;;19.80;41.80;;;;;;5030480;28;20535;-63
2022/12/08 03:01:32;;;;;;;15.00;11.60;;;19.80;41.80;;;;;;5030911;28;20053;-63
2022/12/08 03:04:25;;;;;;;15.95;11.98;;;19.80;41.70;;;;;;5030902;28;20053;-63
2022/12/08 03:07:11;;;;;;;16.27;11.77;;;19.80;41.80;;;;;;5030826;28;20049;-63
2022/12/08 03:10:02;;;;;;;14.20;11.27;;;19.80;41.70;;;;;;5030891;28;20118;-63
2022/12/08 03:12:57;;;;;;;15.60;11.57;;;19.80;41.70;;;;;;5029412;28;20073;-63
2022/12/08 03:15:24;;;;;;;14.18;11.32;;;19.80;41.70;;;;;;5030811;28;20497;-63
2022/12/08 03:17:55;;;;;;;16.88;12.07;;;19.80;41.70;;;;;;5030696;28;20046;-63
2022/12/08 03:20:26;;;;;;;14.05;11.00;;;19.80;41.70;;;;;;5028938;28;20053;-63
2022/12/08 03:22:56;;;;;;;13.95;11.32;;;19.80;41.70;;;;;;5030218;28;20048;-63
2022/12/08 03:25:25;;;;;;;14.18;11.15;;;19.80;41.70;;;;;;5030428;28;20053;-63
2022/12/08 03:27:53;;;;;;;14.65;10.43;;;19.80;41.70;;;;;;5030524;28;20045;-63
2022/12/08 03:30:20;;;;;;;16.10;11.75;;;19.80;41.70;;;;;;5030281;28;20140;-63
2022/12/08 03:33:13;;;;;;;13.77;10.05;;;19.70;41.60;;;;;;5030458;28;20046;-63
2022/12/08 03:35:41;;;;;;;13.60;10.63;;;19.80;41.70;;;;;;5025898;28;20049;-63
2022/12/08 03:38:11;;;;;;;15.45;9.90;;;19.80;41.70;;;;;;5029825;28;20422;-63
2022/12/08 03:40:39;;;;;;;14.40;10.32;;;19.80;41.70;;;;;;5030289;28;20398;-63
2022/12/08 03:43:06;;;;;;;12.65;10.15;;;19.70;41.60;;;;;;5028920;28;20468;-63
2022/12/08 03:45:34;;;;;;;14.57;10.68;;;19.70;41.60;;;;;;5029518;28;20080;-63
2022/12/08 03:48:01;;;;;;;15.15;10.55;;;19.70;41.60;;;;;;5030446;28;20481;-63
2022/12/08 03:50:28;;;;;;;15.55;10.57;;;19.70;41.60;;;;;;5028771;28;20441;-63
2022/12/08 03:52:55;;;;;;;12.15;9.63;;;19.70;41.60;;;;;;5030033;28;20088;-63
2022/12/08 03:55:22;;;;;;;13.07;9.35;;;19.70;41.60;;;;;;5029986;28;20449;-63
2022/12/08 03:57:49;;;;;;;11.65;9.15;;;19.80;41.60;;;;;;5030051;28;20277;-63
2022/12/08 04:00:16;;;;;;;13.20;9.45;;;19.70;41.60;;;;;;5028831;28;20053;-63
2022/12/08 04:02:43;;;;;;;10.75;8.35;;;19.70;41.60;;;;;;5029888;28;20045;-63
2022/12/08 04:05:10;;;;;;;12.77;10.35;;;19.70;41.60;;;;;;5029531;28;20092;-66
2022/12/08 04:07:37;;;;;;;12.52;8.98;;;19.70;41.60;;;;;;5029801;28;20077;-63
2022/12/08 04:10:05;;;;;;;12.05;9.50;;;19.70;41.60;;;;;;5028165;28;20073;-63
2022/12/08 04:12:33;;;;;;;13.95;9.10;;;19.70;41.50;;;;;;5029377;28;20049;-63
2022/12/08 04:15:00;;;;;;;11.95;9.23;;;19.70;41.60;;;;;;5029563;28;20069;-63
2022/12/08 04:17:27;;;;;;;11.60;8.57;;;19.70;41.50;;;;;;5024044;28;20049;-63
2022/12/08 04:19:54;;;;;;;11.80;8.90;;;19.70;41.50;;;;;;5029421;28;20065;-63
2022/12/08 04:22:21;;;;;;;11.75;9.05;;;19.70;41.50;;;;;;5029442;28;20061;-63
2022/12/08 04:24:48;;;;;;;10.77;8.63;;;19.70;41.60;;;;;;5029366;28;20049;-63
2022/12/08 04:27:15;;;;;;;12.68;9.73;;;19.70;41.50;;;;;;5029355;28;20520;-63
2022/12/08 04:29:42;;;;;;;12.02;9.32;;;19.70;41.50;;;;;;5029778;28;20049;-63
2022/12/08 04:32:09;;;;;;;10.93;9.05;;;19.70;41.50;;;;;;5029102;28;20401;-63
2022/12/08 04:34:37;;;;;;;9.80;7.90;;;19.70;41.50;;;;;;5027932;28;20076;-63
2022/12/08 04:37:04;;;;;;;10.63;8.05;;;19.70;41.50;;;;;;5027845;28;20049;-63
2022/12/08 04:39:31;;;;;;;9.43;7.47;;;19.70;41.50;;;;;;5028876;28;20305;-63
2022/12/08 04:41:58;;;;;;;10.07;7.75;;;19.70;41.50;;;;;;5029415;28;20046;-63
2022/12/08 04:44:25;;;;;;;10.82;8.50;;;19.70;41.50;;;;;;5030710;28;20401;-63
2022/12/08 04:46:52;;;;;;;9.75;8.05;;;19.70;41.50;;;;;;5048924;28;20053;-63
2022/12/08 04:49:19;;;;;;;10.93;7.43;;;19.70;41.50;;;;;;5049104;28;20049;-63
2022/12/08 04:51:46;;;;;;;11.18;8.45;;;19.70;41.50;;;;;;5047840;28;20045;-63
2022/12/08 04:54:13;;;;;;;10.98;8.18;;;19.70;41.50;;;;;;5048831;28;20055;-62
2022/12/08 04:56:40;;;;;;;11.10;8.00;;;19.70;41.50;;;;;;5023879;28;20038;-63
2022/12/08 04:59:08;;;;;;;10.10;7.57;;;19.70;41.50;;;;;;5028542;28;20050;-63
2022/12/08 05:01:35;;;;;;;8.60;7.07;;;19.70;41.50;;;;;;5028678;28;20053;-63
2022/12/08 05:04:02;;;;;;;12.05;8.20;;;19.70;41.50;;;;;;5028601;28;20440;-63
2022/12/08 05:06:29;;;;;;;10.07;7.68;;;19.70;41.50;;;;;;5028266;28;20669;-63
2022/12/08 05:08:56;;;;;;;9.07;7.25;;;19.70;41.50;;;;;;5027953;28;20409;-63
2022/12/08 05:11:23;;;;;;;9.35;7.07;;;19.70;41.40;;;;;;5028431;28;20053;-63
2022/12/08 05:13:50;;;;;;;9.82;7.32;;;19.70;41.30;;;;;;5028076;28;20041;-63
2022/12/08 05:16:17;;;;;;;9.02;7.57;;;19.70;41.30;;;;;;5028501;28;20406;-63
2022/12/08 05:18:44;;;;;;;10.52;7.60;;;19.70;41.20;;;;;;5028043;28;20138;-63
2022/12/08 05:21:11;;;;;;;9.07;7.53;;;19.80;41.30;;;;;;5027732;28;20113;-63
2022/12/08 05:23:39;;;;;;;9.38;7.00;;;19.70;41.30;;;;;;5027002;28;20048;-63
2022/12/08 05:26:06;;;;;;;10.50;7.10;;;19.70;41.20;;;;;;5027909;28;20049;-63
2022/12/08 05:28:33;;;;;;;8.30;6.85;;;19.70;41.20;;;;;;5027228;28;20126;-63
2022/12/08 05:31:11;;;;;;;10.07;7.25;;;19.70;41.30;;;;;;5022167;28;20548;-63
2022/12/08 05:33:38;;;;;;;8.50;6.63;;;19.70;41.20;;;;;;5026097;28;20172;-63
2022/12/08 05:36:06;;;;;;;10.00;7.03;;;19.70;41.20;;;;;;5028652;28;20056;-63
2022/12/08 05:38:33;;;;;;;9.70;7.72;;;19.70;41.10;;;;;;5027608;28;20049;-63
2022/12/08 05:41:00;;;;;;;10.10;7.65;;;19.70;40.90;;;;;;5028192;28;20394;-63
2022/12/08 05:43:27;;;;;;;11.25;8.15;;;19.70;40.80;;;;;;5041095;28;20059;-64
2022/12/08 05:45:54;;;;;;;10.85;8.32;;;19.80;40.70;;;;;;5047321;28;20055;-63
2022/12/08 05:48:22;;;;;;;10.05;7.97;;;19.80;40.60;;;;;;5035161;28;20056;-63
2022/12/08 05:50:50;;;;;;;11.07;8.45;;;19.80;40.50;;;;;;5027726;28;20282;-63
2022/12/08 05:53:19;;;;;;;10.95;8.25;;;19.80;40.50;;;;;;5026203;28;20519;-63
2022/12/08 05:55:46;;;;;;;9.60;7.80;;;19.80;40.50;;;;;;5026493;28;20076;-63
2022/12/08 05:58:16;;;;;;;11.05;7.55;;;19.80;40.70;;;;;;5026373;28;20429;-63
2022/12/08 06:00:44;;;;;;;8.63;7.25;;;19.70;40.60;;;;;;5027337;28;20049;-63
2022/12/08 06:03:12;;;;;;;10.40;7.75;;;19.70;40.70;;;;;;5026394;28;20432;-63
2022/12/08 06:05:41;;;;;;;10.32;8.15;;;19.70;40.70;;;;;;5030903;28;20053;-63
2022/12/08 06:08:08;;;;;;;10.85;8.45;;;19.70;40.70;;;;;;5032353;28;20048;-63
2022/12/08 06:10:38;;;;;;;10.35;8.45;;;19.70;40.70;;;;;;5024523;28;20111;-63
2022/12/08 06:13:05;;;;;;;12.15;9.02;;;19.70;40.80;;;;;;5031328;28;20409;-63
2022/12/08 06:15:36;;;;;;;12.23;8.43;;;19.70;40.70;;;;;;5030031;28;20713;-63
2022/12/08 06:18:03;;;;;;;;;;;19.70;40.80;;;;;;5024450;28;20056;-63
2022/12/08 06:20:30;;;;;;;10.70;8.65;;;19.60;40.80;;;;;;5025975;28;19932;-64
2022/12/08 06:22:58;;;;;;;9.32;7.63;;;19.70;41.00;;;;;;5026766;28;20409;-64
2022/12/08 06:25:28;;;;;;;12.68;9.13;;;19.70;41.10;;;;;;5027388;28;20543;-63
2022/12/08 06:27:55;;;;;;;14.77;9.20;;;19.70;41.30;;;;;;5027220;28;20514;-64
2022/12/08 06:30:22;;;;;;;12.77;10.43;;;19.60;41.30;;;;;;5027676;28;20512;-63
2022/12/08 06:32:50;;;;;;;11.50;8.88;;;19.70;41.50;;;;;;5021486;28;20072;-63
2022/12/08 06:35:17;;;;;;;14.38;8.95;;;19.70;41.60;;;;;;5024498;28;20045;-63
2022/12/08 06:37:44;;;;;;;12.38;9.38;;;19.70;42.20;;;;;;5026078;28;20041;-62
2022/12/08 06:40:11;;;;;;;12.68;9.38;;;19.70;41.80;;;;;;5026459;28;20048;-64
2022/12/08 06:42:46;;;;;;;14.20;10.05;;;19.80;41.90;;;;;;5022821;28;20057;-63
2022/12/08 06:45:15;;;;;;;13.00;10.10;;;19.80;42.40;;;;;;5025581;28;20059;-62
2022/12/08 06:47:42;;;;;;;13.20;9.85;;;19.80;41.90;;;;;;5023479;28;20056;-63
2022/12/08 06:50:10;;;;;;;13.13;9.85;;;19.90;41.90;;;;;;5012959;28;20052;-63
2022/12/08 06:52:39;;;;;;;14.93;10.27;;;19.90;41.80;;;;;;5021865;28;20048;-63
2022/12/08 06:55:24;;;;;;;13.35;9.45;;;19.90;41.50;;;;;;5023671;28;20053;-63
2022/12/08 06:58:13;;;;;;;14.70;10.82;;;19.90;41.40;;;;;;5020171;28;20053;-64
2022/12/08 07:00:41;;;;;;;15.13;10.00;;;19.90;41.40;;;;;;5022752;28;20432;-64
2022/12/08 07:03:09;;;;;;;13.68;10.00;;;19.90;41.50;;;;;;5023777;28;20080;-67
2022/12/08 07:05:37;;;;;;;18.08;11.65;;;20.00;41.60;;;;;;5018707;28;20046;-62
2022/12/08 07:08:07;;;;;;;15.80;11.52;;;19.90;41.70;;;;;;5019408;28;20046;-62
2022/12/08 07:10:34;;;;;;;14.27;11.55;;;20.00;42.10;;;;;;5020580;28;20049;-62
2022/12/08 07:13:02;;;;;;;15.90;11.98;;;20.00;42.20;;;;;;5021863;28;20046;-64
2022/12/08 07:15:29;;;;;;;20.30;11.32;;;20.10;42.40;;;;;;5019787;28;20427;-63
2022/12/08 07:17:56;;;;;;;15.65;10.23;;;20.10;42.60;;;;;;5024746;28;20054;-63
2022/12/08 07:20:26;;;;;;;17.00;11.70;;;20.10;42.70;;;;;;5023861;28;20140;-63
2022/12/08 07:22:54;;;;;;;20.23;11.52;;;20.20;43.00;;;;;;5023354;28;20131;-62
2022/12/08 07:25:22;;;;;;;17.92;12.77;;;20.20;43.10;;;;;;5016737;28;20056;-63
2022/12/08 07:27:50;;;;;;;22.13;13.43;;;20.30;43.20;;;;;;5020499;28;20045;-62
2022/12/08 07:30:18;;;;;;;20.05;13.23;;;20.30;43.10;;;;;;5011822;28;20099;-64
2022/12/08 07:32:45;;;;;;;20.70;13.13;;;20.40;43.20;;;;;;5014583;28;20045;-63
2022/12/08 07:35:13;;;;;;;21.92;13.13;;;20.40;43.20;;;;;;5021604;28;20059;-63
2022/12/08 07:37:40;;;;;;;23.33;12.48;;;20.50;43.20;;;;;;5019492;28;20067;-63
2022/12/08 07:40:08;;;;;;;20.55;12.90;;;20.50;43.10;;;;;;5022874;28;20664;-63
2022/12/08 07:42:35;;;;;;;19.48;13.48;;;20.60;43.20;;;;;;5024180;28;20045;-63
2022/12/08 07:45:03;;;;;;;24.67;13.18;;;20.60;43.20;;;;;;5020360;28;20068;-64
2022/12/08 07:47:30;;;;;;;20.52;12.82;;;20.60;43.10;;;;;;5023588;28;20042;-64
2022/12/08 07:49:57;;;;;;;20.90;12.45;;;20.70;43.10;;;;;;5020205;28;20055;-63
2022/12/08 07:52:24;;;;;;;18.98;13.52;;;20.70;43.10;;;;;;5017448;28;20049;-64
2022/12/08 07:54:51;;;;;;;21.13;13.45;;;20.70;43.00;;;;;;5019721;28;20398;-66
2022/12/08 07:57:18;;;;;;;17.75;12.60;;;20.70;42.90;;;;;;5021773;28;20052;-67
2022/12/08 07:59:46;;;;;;;19.88;12.93;;;20.70;42.80;;;;;;5022355;28;20413;-74
2022/12/08 08:02:18;;;;;;;21.10;13.43;;;20.80;42.70;;;;;;5016367;28;20077;-70
2022/12/08 08:04:52;;;;;;;18.30;12.45;;;20.80;42.70;;;;;;5020138;28;20096;-70
2022/12/08 08:07:20;;;;;;;18.83;12.43;;;20.80;42.80;;;;;;5019913;28;20543;-71
2022/12/08 08:09:47;;;;;;;17.17;11.95;;;20.80;42.80;;;;;;5020272;28;20053;-72
2022/12/08 08:12:14;;;;;;;18.30;12.68;;;20.90;42.90;;;;;;5018578;28;20038;-68
2022/12/08 08:14:58;;;;;;;20.35;13.10;;;20.90;42.80;;;;;;5017713;28;20107;-72
2022/12/08 08:17:25;;;;;;;19.08;12.68;;;20.90;42.70;;;;;;5020744;28;20048;-72
2022/12/08 08:19:52;;;;;;;19.73;13.63;;;20.90;42.50;;;;;;5023666;28;20063;-73
2022/12/08 08:22:20;;;;;;;20.77;13.45;;;20.90;42.40;;;;;;5022940;28;20044;-73
2022/12/08 08:24:47;;;;;;;22.77;12.88;;;20.90;42.30;;;;;;5022830;28;20047;-71
2022/12/08 08:27:14;;;;;;;21.33;12.65;;;20.90;42.30;;;;;;5019374;28;20564;-70
2022/12/08 08:29:41;;;;;;;17.45;12.75;;;20.90;42.50;;;;;;5021727;28;20042;-69
2022/12/08 08:32:08;;;;;;;20.23;13.35;;;20.90;42.70;;;;;;5021531;28;20049;-69
2022/12/08 08:34:36;;;;;;;21.63;14.27;;;21.00;42.80;;;;;;5017603;28;20067;-67
2022/12/08 08:37:03;;;;;;;19.40;12.70;;;21.00;43.30;;;;;;5021762;28;20052;-67
2022/12/08 08:39:30;;;;;;;21.48;12.75;;;21.00;42.50;;;;;;5022076;28;20077;-74
2022/12/08 08:41:58;;;;;;;20.48;12.75;;;21.00;42.60;;;;;;5018035;28;20072;-68
2022/12/08 08:44:25;;;;;;;19.27;12.68;;;21.10;42.80;;;;;;5019132;28;20609;-69
2022/12/08 08:46:52;;;;;;;18.48;12.95;;;21.10;42.90;;;;;;5020666;28;20057;-68
2022/12/08 08:49:20;;;;;;;21.77;14.02;;;21.20;43.00;;;;;;5023858;28;20046;-67
2022/12/08 08:51:47;;;;;;;19.35;12.00;;;21.20;42.90;;;;;;5020653;28;20059;-66
2022/12/08 08:54:14;;;;;;;24.67;13.13;;;21.30;43.00;;;;;;5019002;28;20489;-67
2022/12/08 08:56:41;;;;;;;18.48;12.65;;;21.30;42.90;;;;;;5021724;28;20045;-65
2022/12/08 08:59:09;;;;;;;18.95;13.25;;;21.40;42.90;;;;;;5022585;28;20069;-67
2022/12/08 09:01:36;;;;;;;18.10;12.93;;;21.40;42.80;;;;;;5025158;28;20136;-68
2022/12/08 09:04:03;;;;;;;17.52;12.27;;;21.50;42.70;;;;;;5022751;28;20045;-68
2022/12/08 09:06:30;;;;;;;17.80;12.27;;;21.50;42.60;;;;;;5008829;28;20053;-71
2022/12/08 09:08:59;;;;;;;20.65;13.15;;;21.50;42.40;;;;;;5021040;28;20091;-70
2022/12/08 09:11:26;;;;;;;19.83;11.90;;;21.60;42.40;;;;;;5020148;28;20527;-64
2022/12/08 09:13:54;;;;;;;15.82;11.48;;;21.60;42.30;;;;;;5021472;28;20061;-64
2022/12/08 09:16:21;;;;;;;20.42;12.32;;;21.70;42.20;;;;;;5019581;28;20064;-64
2022/12/08 09:18:49;;;;;;;17.58;11.93;;;21.70;42.00;;;;;;5011259;28;20084;-64
2022/12/08 09:21:21;;;;;;;17.20;11.45;;;21.70;41.70;;;;;;5023192;28;20472;-65
2022/12/08 09:23:51;;;;;;;15.50;11.25;;;21.80;41.60;;;;;;5016983;28;20528;-63
2022/12/08 09:26:21;;;;;;;19.13;11.00;;;21.80;41.30;;;;;;5018384;28;20498;-68
2022/12/08 09:28:50;;;;;;;15.82;11.80;;;21.80;41.30;;;;;;5018226;28;20489;-63
2022/12/08 09:31:19;;;;;;;17.52;11.02;;;21.90;41.40;;;;;;5021307;28;20529;-65
2022/12/08 09:33:47;;;;;;;16.83;11.40;;;21.90;41.40;;;;;;5019540;28;20453;-67
2022/12/08 09:36:14;;;;;;;17.27;10.07;;;21.90;41.30;;;;;;5024343;28;20087;-65
2022/12/08 09:38:41;;;;;;;14.63;9.85;;;21.90;41.20;;;;;;5020392;28;20417;-67
2022/12/08 09:41:36;;;;;;;13.52;9.32;;;22.00;41.10;;;;;;5020999;28;20052;-65
2022/12/08 09:44:37;;;;;;;12.65;9.95;;;22.00;41.00;;;;;;5020486;28;20053;-64
2022/12/08 09:47:24;;;;;;;14.82;9.95;;;22.00;40.90;;;;;;5019057;28;20136;-65
2022/12/08 09:50:21;;;;;;;20.75;10.25;;;22.00;40.90;;;;;;5019497;28;20077;-65
2022/12/08 09:53:08;;;;;;;18.50;9.93;;;22.00;40.80;;;;;;5013376;28;20073;-65
2022/12/08 09:55:49;;;;;;;14.00;9.73;;;22.00;40.80;;;;;;5015070;28;20083;-65
2022/12/08 09:58:39;;;;;;;10.55;8.77;;;22.00;40.70;;;;;;5018844;28;20045;-64
2022/12/08 10:01:09;;;;;;;13.23;8.93;;;22.00;40.60;;;;;;5020210;28;20041;-65
2022/12/08 10:03:37;;;;;;;13.57;8.57;;;22.10;40.60;;;;;;5021246;28;20693;-64
2022/12/08 10:06:41;;;;;;;12.90;8.23;;;22.10;40.50;;;;;;5020543;28;20071;-62
2022/12/08 10:09:27;;;;;;;10.27;7.47;;;22.10;40.40;;;;;;5021954;28;20046;-64
2022/12/08 10:12:21;;;;;;;11.85;8.02;;;22.20;40.50;;;;;;5021693;28;20053;-65
2022/12/08 10:15:25;;;;;;;13.23;8.48;;;22.20;40.40;;;;;;5022105;28;20045;-63
2022/12/08 10:17:55;;;;;;;11.50;7.80;;;22.30;40.40;;;;;;5013529;28;20057;-63
2022/12/08 10:20:25;;;;;;;9.57;6.65;;;22.30;40.30;;;;;;5018321;28;20049;-63
2022/12/08 10:23:09;;;;;;;10.50;6.90;;;22.40;40.20;;;;;;5018980;28;20046;-63
2022/12/08 10:25:43;;;;;;;8.02;7.05;;;22.30;40.10;;;;;;5022938;28;20512;-64
2022/12/08 10:28:11;;;;;;;8.88;6.78;;;22.40;40.10;;;;;;5022326;28;20053;-65
2022/12/08 10:30:38;;;;;;;13.30;7.13;;;22.40;40.00;;;;;;5020953;28;20049;-65
2022/12/08 10:33:13;;;;;;;10.50;6.50;;;22.40;40.00;;;;;;5020695;28;20049;-69
2022/12/08 10:35:48;;;;;;;8.82;6.45;;;22.40;39.90;;;;;;5017752;28;20144;-63
2022/12/08 10:38:22;;;;;;;9.00;7.00;;;22.50;40.00;;;;;;5021070;28;20556;-63
2022/12/08 10:40:52;;;;;;;10.98;6.68;;;22.50;40.10;;;;;;5020225;28;20046;-63
2022/12/08 10:43:24;;;;;;;10.93;6.25;;;22.50;40.00;;;;;;5018335;28;20053;-63
2022/12/08 10:45:52;;;;;;;6.95;5.43;;;22.50;39.90;;;;;;5019863;28;20052;-63
2022/12/08 10:48:25;;;;;;;9.95;6.65;;;22.50;39.90;;;;;;5019547;28;20042;-63
2022/12/08 10:50:56;;;;;;;9.93;6.43;;;22.50;39.80;;;;;;5025027;28;20056;-67
2022/12/08 10:53:26;;;;;;;7.90;5.32;;;22.50;39.70;;;;;;5024189;28;20212;-65
2022/12/08 10:56:12;;;;;;;11.73;6.35;;;22.60;39.70;;;;;;5027321;28;20128;-63
2022/12/08 10:58:41;;;;;;;8.18;5.65;;;22.60;39.50;;;;;;5019979;28;20053;-65
2022/12/08 11:01:19;;;;;;;8.10;5.40;;;22.60;39.50;;;;;;5024001;28;20049;-66
2022/12/08 11:03:57;;;;;;;7.63;5.30;;;22.50;39.30;;;;;;5022612;28;20145;-64
2022/12/08 11:06:35;;;;;;;8.95;5.45;;;22.60;39.40;;;;;;5022031;28;20517;-65
2022/12/08 11:09:20;;;;;;;10.32;5.82;;;22.50;39.20;;;;;;5023896;28;20069;-64
2022/12/08 11:11:56;;;;;;;6.15;4.93;;;22.50;39.20;;;;;;5023771;28;20064;-62
2022/12/08 11:14:26;;;;;;;6.90;5.47;;;22.40;39.20;;;;;;5025750;28;20037;-63
2022/12/08 11:17:12;;;;;;;;;;;22.40;39.20;;;;;;5028527;28;20053;-64
2022/12/08 11:19:45;;;;;;;7.30;5.70;;;22.30;39.00;;;;;;5024335;28;19928;-64
2022/12/08 11:22:31;;;;;;;7.68;4.80;;;22.40;38.90;;;;;;5024544;28;20414;-63
2022/12/08 11:25:20;;;;;;;8.25;4.80;;;22.30;38.80;;;;;;5026267;28;20049;-63
2022/12/08 11:27:49;;;;;;;6.07;4.93;;;22.20;38.70;;;;;;5022013;28;20041;-63
2022/12/08 11:30:23;;;;;;;5.95;4.38;;;22.20;38.70;;;;;;5019229;28;20052;-65
2022/12/08 11:32:57;;;;;;;7.35;5.18;;;22.20;38.70;;;;;;5022255;28;20060;-64
2022/12/08 11:35:36;;;;;;;7.43;4.78;;;22.10;38.60;;;;;;5018722;28;20068;-64
2022/12/08 11:38:13;;;;;;;7.95;4.68;;;22.10;38.60;;;;;;5021691;28;20068;-63
2022/12/08 11:40:52;;;;;;;8.90;5.07;;;22.10;38.80;;;;;;5023459;28;20057;-65
2022/12/08 11:43:39;;;;;;;8.55;4.68;;;22.10;39.00;;;;;;5026551;28;20076;-65
2022/12/08 11:46:20;;;;;;;5.82;4.55;;;22.00;39.20;;;;;;5056930;28;20052;-65
2022/12/08 11:48:59;;;;;;;7.63;4.72;;;22.00;39.20;;;;;;5023015;28;20095;-65
2022/12/08 11:51:39;;;;;;;5.97;4.43;;;22.00;39.30;;;;;;5025788;28;20176;-65
2022/12/08 11:54:28;;;;;;;8.52;4.82;;;22.00;40.20;;;;;;5025716;28;20083;-64
2022/12/08 11:56:57;;;;;;;6.70;4.47;;;22.00;40.20;;;;;;5028039;28;20056;-64
2022/12/08 11:59:43;;;;;;;6.75;5.00;;;21.90;40.10;;;;;;5026731;28;20078;-65
2022/12/08 12:02:15;;;;;;;7.22;4.93;;;21.90;40.20;;;;;;5055969;28;20054;-64
2022/12/08 12:05:03;;;;;;;8.40;5.43;;;21.90;40.30;;;;;;5016658;28;20616;-65
2022/12/08 12:08:10;;;;;;;5.85;4.55;;;21.90;40.20;;;;;;5020383;28;20414;-66
2022/12/08 12:12:12;;;;;;;5.47;4.90;;;21.90;40.10;;;;;;5026944;28;21393;-66
2022/12/08 12:14:35;;;;;;;5.20;4.10;;;21.90;40.10;;;;;;5022694;28;20048;-65
2022/12/08 12:17:07;;;;;;;5.95;4.88;;;21.90;40.00;;;;;;5039029;28;20046;-65
2022/12/08 12:19:38;;;;;;;7.35;4.82;;;21.90;40.00;;;;;;5024178;28;21037;-65
2022/12/08 12:22:19;;;;;;;10.40;4.97;;;21.90;40.00;;;;;;5025030;28;20045;-65
2022/12/08 12:24:47;;;;;;;;;;;21.90;40.00;;;;;;5029025;28;20045;-66
2022/12/08 12:27:31;;;;;;;6.53;5.22;;;21.90;40.00;;;;;;5022511;28;19921;-67
2022/12/08 12:30:05;;;;;;;8.30;5.68;;;21.90;40.00;;;;;;5025851;28;20056;-64
2022/12/08 12:32:59;;;;;;;8.98;5.07;;;21.90;40.00;;;;;;5026058;28;20099;-66
2022/12/08 12:35:41;;;;;;;8.70;5.40;;;21.90;39.90;;;;;;5022447;28;20485;-65
2022/12/08 12:41:32;;;;;;;;;;;21.90;40.00;;;;;;5023136;28;20063;-64
2022/12/08 12:44:22;;;;;;;8.50;4.88;;;21.90;39.90;;;;;;5024482;28;19928;-66
2022/12/08 12:46:56;;;;;;;7.50;4.93;;;21.90;39.90;;;;;;5050709;28;20091;-64
2022/12/08 12:49:48;;;;;;;7.38;4.55;;;21.90;39.90;;;;;;5023981;28;20050;-65
2022/12/08 12:52:36;;;;;;;5.80;4.30;;;21.90;39.90;;;;;;5025225;28;20124;-65
2022/12/08 12:55:22;;;;;;;7.65;4.53;;;21.90;39.80;;;;;;5022842;28;20042;-62
2022/12/08 12:57:53;;;;;;;10.60;5.03;;;21.90;39.80;;;;;;5022967;28;20045;-62
2022/12/08 13:00:24;;;;;;;6.88;5.05;;;21.90;40.00;;;;;;5019931;28;20049;-64
2022/12/08 13:02:56;;;;;;;10.20;5.15;;;21.90;40.00;;;;;;5030693;28;20132;-62
2022/12/08 13:05:26;;;;;;;;;;;21.90;39.90;;;;;;5023668;28;20049;-64
2022/12/08 13:07:57;;;;;;;7.95;5.65;;;22.00;39.90;;;;;;5023513;28;19920;-64
2022/12/08 13:10:32;;;;;;;9.23;4.85;;;22.00;39.90;;;;;;5017669;28;20049;-62
2022/12/08 13:13:17;;;;;;;7.25;5.43;;;22.00;39.80;;;;;;5019723;28;20494;-65